sensor_id;sensor_type;location;lat;lon;timestamp;temperature;humidity
44513;DHT22;30219;50.588;9.504;2023-05-07T00:00:09;13.40;99.90
44513;DHT22;30219;50.588;9.504;2023-05-07T00:02:34;13.40;99.90
44513;DHT22;30219;50.588;9.504;2023-05-07T00:05:00;13.40;99.90
44513;DHT22;30219;50.588;9.504;2023-05-07T00:07:27;13.40;99.90
44513;DHT22;30219;50.588;9.504;2023-05-07T00:09:52;13.40;99.90
44513;DHT22;30219;50.588;9.504;2023-05-07T00:12:18;13.30;99.90
44513;DHT22;30219;50.588;9.504;2023-05-07T00:14:43;13.30;99.90
44513;DHT22;30219;50.588;9.504;2023-05-07T00:17:09;13.30;99.90
44513;DHT22;30219;50.588;9.504;2023-05-07T00:19:34;13.30;99.90
44513;DHT22;30219;50.588;9.504;2023-05-07T00:22:00;13.30;99.90
44513;DHT22;30219;50.588;9.504;2023-05-07T00:24:25;13.30;99.90
44513;DHT22;30219;50.588;9.504;2023-05-07T00:26:51;13.30;99.90
44513;DHT22;30219;50.588;9.504;2023-05-07T00:29:20;13.50;99.90
44513;DHT22;30219;50.588;9.504;2023-05-07T00:31:46;13.50;99.90
44513;DHT22;30219;50.588;9.504;2023-05-07T00:34:11;13.50;99.90
44513;DHT22;30219;50.588;9.504;2023-05-07T00:36:37;13.50;99.90
44513;DHT22;30219;50.588;9.504;2023-05-07T00:39:02;13.50;99.90
44513;DHT22;30219;50.588;9.504;2023-05-07T00:41:29;13.50;99.90
44513;DHT22;30219;50.588;9.504;2023-05-07T00:43:55;13.50;99.90
44513;DHT22;30219;50.588;9.504;2023-05-07T00:46:21;13.50;99.90
44513;DHT22;30219;50.588;9.504;2023-05-07T00:48:48;13.50;99.90
44513;DHT22;30219;50.588;9.504;2023-05-07T00:51:13;13.40;99.90
44513;DHT22;30219;50.588;9.504;2023-05-07T00:53:39;13.50;99.90
44513;DHT22;30219;50.588;9.504;2023-05-07T00:56:05;13.40;99.90
44513;DHT22;30219;50.588;9.504;2023-05-07T00:58:32;13.30;99.90
44513;DHT22;30219;50.588;9.504;2023-05-07T01:00:57;13.30;99.90
44513;DHT22;30219;50.588;9.504;2023-05-07T01:03:23;13.40;99.90
44513;DHT22;30219;50.588;9.504;2023-05-07T01:05:48;13.40;99.90
44513;DHT22;30219;50.588;9.504;2023-05-07T01:08:15;13.40;99.90
44513;DHT22;30219;50.588;9.504;2023-05-07T01:10:41;13.50;99.90
44513;DHT22;30219;50.588;9.504;2023-05-07T01:13:11;13.50;99.90
44513;DHT22;30219;50.588;9.504;2023-05-07T01:15:37;13.50;99.90
44513;DHT22;30219;50.588;9.504;2023-05-07T01:18:03;13.40;99.90
44513;DHT22;30219;50.588;9.504;2023-05-07T01:20:29;13.30;99.90
44513;DHT22;30219;50.588;9.504;2023-05-07T01:22:54;13.30;99.90
44513;DHT22;30219;50.588;9.504;2023-05-07T01:25:20;13.20;99.90
44513;DHT22;30219;50.588;9.504;2023-05-07T01:27:46;13.10;99.90
44513;DHT22;30219;50.588;9.504;2023-05-07T01:30:12;13.10;99.90
44513;DHT22;30219;50.588;9.504;2023-05-07T01:32:40;13.10;99.90
44513;DHT22;30219;50.588;9.504;2023-05-07T01:35:09;13.10;99.90
44513;DHT22;30219;50.588;9.504;2023-05-07T01:37:35;13.10;99.90
44513;DHT22;30219;50.588;9.504;2023-05-07T01:40:01;13.20;99.90
44513;DHT22;30219;50.588;9.504;2023-05-07T01:42:27;13.20;99.90
44513;DHT22;30219;50.588;9.504;2023-05-07T01:44:53;13.30;99.90
44513;DHT22;30219;50.588;9.504;2023-05-07T01:47:19;13.20;99.90
44513;DHT22;30219;50.588;9.504;2023-05-07T01:49:45;13.30;99.90
44513;DHT22;30219;50.588;9.504;2023-05-07T01:52:10;13.20;99.90
44513;DHT22;30219;50.588;9.504;2023-05-07T01:54:37;13.20;99.90
44513;DHT22;30219;50.588;9.504;2023-05-07T01:57:02;13.10;99.90
44513;DHT22;30219;50.588;9.504;2023-05-07T01:59:28;13.10;99.90
44513;DHT22;30219;50.588;9.504;2023-05-07T02:01:53;13.00;99.90
44513;DHT22;30219;50.588;9.504;2023-05-07T02:04:19;13.00;99.90
44513;DHT22;30219;50.588;9.504;2023-05-07T02:06:44;13.10;99.90
44513;DHT22;30219;50.588;9.504;2023-05-07T02:09:10;13.00;99.90
44513;DHT22;30219;50.588;9.504;2023-05-07T02:11:35;13.00;99.90
44513;DHT22;30219;50.588;9.504;2023-05-07T02:14:01;13.10;99.90
44513;DHT22;30219;50.588;9.504;2023-05-07T02:16:26;13.10;99.90
44513;DHT22;30219;50.588;9.504;2023-05-07T02:18:52;13.00;99.90
44513;DHT22;30219;50.588;9.504;2023-05-07T02:21:17;13.00;99.90
44513;DHT22;30219;50.588;9.504;2023-05-07T02:23:43;13.10;99.90
44513;DHT22;30219;50.588;9.504;2023-05-07T02:26:09;13.10;99.90
44513;DHT22;30219;50.588;9.504;2023-05-07T02:28:35;13.10;99.90
44513;DHT22;30219;50.588;9.504;2023-05-07T02:31:04;13.10;99.90
44513;DHT22;30219;50.588;9.504;2023-05-07T02:33:29;13.00;99.90
44513;DHT22;30219;50.588;9.504;2023-05-07T02:35:55;13.00;99.90
44513;DHT22;30219;50.588;9.504;2023-05-07T02:38:21;13.00;99.90
44513;DHT22;30219;50.588;9.504;2023-05-07T02:40:47;13.00;99.90
44513;DHT22;30219;50.588;9.504;2023-05-07T02:43:12;12.90;99.90
44513;DHT22;30219;50.588;9.504;2023-05-07T02:45:38;12.90;99.90
44513;DHT22;30219;50.588;9.504;2023-05-07T02:48:04;13.00;99.90
44513;DHT22;30219;50.588;9.504;2023-05-07T02:50:30;12.90;99.90
44513;DHT22;30219;50.588;9.504;2023-05-07T02:52:58;12.90;99.90
44513;DHT22;30219;50.588;9.504;2023-05-07T02:55:23;13.00;99.90
44513;DHT22;30219;50.588;9.504;2023-05-07T02:57:49;13.00;99.90
44513;DHT22;30219;50.588;9.504;2023-05-07T03:00:15;13.00;99.90
44513;DHT22;30219;50.588;9.504;2023-05-07T03:02:41;12.90;99.90
44513;DHT22;30219;50.588;9.504;2023-05-07T03:05:07;12.90;99.90
44513;DHT22;30219;50.588;9.504;2023-05-07T03:07:33;13.00;99.90
44513;DHT22;30219;50.588;9.504;2023-05-07T03:09:58;13.00;99.90
44513;DHT22;30219;50.588;9.504;2023-05-07T03:12:24;13.00;99.90
44513;DHT22;30219;50.588;9.504;2023-05-07T03:14:49;13.00;99.90
44513;DHT22;30219;50.588;9.504;2023-05-07T03:17:14;13.00;99.90
44513;DHT22;30219;50.588;9.504;2023-05-07T03:19:41;13.00;99.90
44513;DHT22;30219;50.588;9.504;2023-05-07T03:22:06;12.90;99.90
44513;DHT22;30219;50.588;9.504;2023-05-07T03:24:32;12.90;99.90
44513;DHT22;30219;50.588;9.504;2023-05-07T03:26:57;12.90;99.90
44513;DHT22;30219;50.588;9.504;2023-05-07T03:29:23;12.80;99.90
44513;DHT22;30219;50.588;9.504;2023-05-07T03:31:48;12.90;99.90
44513;DHT22;30219;50.588;9.504;2023-05-07T03:34:14;12.80;99.90
44513;DHT22;30219;50.588;9.504;2023-05-07T03:36:40;12.80;99.90
44513;DHT22;30219;50.588;9.504;2023-05-07T03:39:06;12.70;99.90
44513;DHT22;30219;50.588;9.504;2023-05-07T03:41:32;12.70;99.90
44513;DHT22;30219;50.588;9.504;2023-05-07T03:43:57;12.70;99.90
44513;DHT22;30219;50.588;9.504;2023-05-07T03:46:23;12.70;99.90
44513;DHT22;30219;50.588;9.504;2023-05-07T03:48:51;12.60;99.90
44513;DHT22;30219;50.588;9.504;2023-05-07T03:51:16;12.60;99.90
44513;DHT22;30219;50.588;9.504;2023-05-07T03:53:42;12.70;99.90
44513;DHT22;30219;50.588;9.504;2023-05-07T03:56:07;12.60;99.90
44513;DHT22;30219;50.588;9.504;2023-05-07T03:58:33;12.60;99.90
44513;DHT22;30219;50.588;9.504;2023-05-07T04:00:59;12.60;99.90
44513;DHT22;30219;50.588;9.504;2023-05-07T04:03:24;12.60;99.90
44513;DHT22;30219;50.588;9.504;2023-05-07T04:05:50;12.60;99.90
44513;DHT22;30219;50.588;9.504;2023-05-07T04:08:15;12.60;99.90
44513;DHT22;30219;50.588;9.504;2023-05-07T04:10:40;12.70;99.90
44513;DHT22;30219;50.588;9.504;2023-05-07T04:13:06;12.70;99.90
44513;DHT22;30219;50.588;9.504;2023-05-07T04:15:31;12.70;99.90
44513;DHT22;30219;50.588;9.504;2023-05-07T04:17:57;12.70;99.90
44513;DHT22;30219;50.588;9.504;2023-05-07T04:20:22;12.80;99.90
44513;DHT22;30219;50.588;9.504;2023-05-07T04:22:48;12.80;99.90
44513;DHT22;30219;50.588;9.504;2023-05-07T04:25:13;12.80;99.90
44513;DHT22;30219;50.588;9.504;2023-05-07T04:27:39;12.80;99.90
44513;DHT22;30219;50.588;9.504;2023-05-07T04:30:05;12.80;99.90
44513;DHT22;30219;50.588;9.504;2023-05-07T04:32:31;12.80;99.90
44513;DHT22;30219;50.588;9.504;2023-05-07T04:34:57;12.80;99.90
44513;DHT22;30219;50.588;9.504;2023-05-07T04:37:22;12.80;99.90
44513;DHT22;30219;50.588;9.504;2023-05-07T04:39:48;12.80;99.90
44513;DHT22;30219;50.588;9.504;2023-05-07T04:42:14;12.90;99.90
44513;DHT22;30219;50.588;9.504;2023-05-07T04:44:40;12.90;99.90
44513;DHT22;30219;50.588;9.504;2023-05-07T04:47:06;12.90;99.90
44513;DHT22;30219;50.588;9.504;2023-05-07T04:49:31;12.90;99.90
44513;DHT22;30219;50.588;9.504;2023-05-07T04:51:57;12.90;99.90
44513;DHT22;30219;50.588;9.504;2023-05-07T04:54:22;12.90;99.90
44513;DHT22;30219;50.588;9.504;2023-05-07T04:56:48;12.90;99.90
44513;DHT22;30219;50.588;9.504;2023-05-07T04:59:13;12.90;99.90
44513;DHT22;30219;50.588;9.504;2023-05-07T05:01:39;12.80;99.90
44513;DHT22;30219;50.588;9.504;2023-05-07T05:04:05;12.80;99.90
44513;DHT22;30219;50.588;9.504;2023-05-07T05:06:31;12.90;99.90
44513;DHT22;30219;50.588;9.504;2023-05-07T05:08:56;13.00;99.90
44513;DHT22;30219;50.588;9.504;2023-05-07T05:11:22;13.00;99.90
44513;DHT22;30219;50.588;9.504;2023-05-07T05:13:47;13.00;99.90
44513;DHT22;30219;50.588;9.504;2023-05-07T05:16:14;13.00;99.90
44513;DHT22;30219;50.588;9.504;2023-05-07T05:18:40;13.00;99.90
44513;DHT22;30219;50.588;9.504;2023-05-07T05:21:06;13.00;99.90
44513;DHT22;30219;50.588;9.504;2023-05-07T05:23:31;13.10;99.90
44513;DHT22;30219;50.588;9.504;2023-05-07T05:25:57;13.20;99.90
44513;DHT22;30219;50.588;9.504;2023-05-07T05:28:23;13.30;99.90
44513;DHT22;30219;50.588;9.504;2023-05-07T05:30:48;13.30;99.90
44513;DHT22;30219;50.588;9.504;2023-05-07T05:33:14;13.30;99.90
44513;DHT22;30219;50.588;9.504;2023-05-07T05:35:40;13.30;99.90
44513;DHT22;30219;50.588;9.504;2023-05-07T05:38:05;13.40;99.90
44513;DHT22;30219;50.588;9.504;2023-05-07T05:40:31;13.30;99.90
44513;DHT22;30219;50.588;9.504;2023-05-07T05:42:57;13.40;99.90
44513;DHT22;30219;50.588;9.504;2023-05-07T05:45:22;13.40;99.90
44513;DHT22;30219;50.588;9.504;2023-05-07T05:47:48;13.40;99.90
44513;DHT22;30219;50.588;9.504;2023-05-07T05:50:13;13.40;99.90
44513;DHT22;30219;50.588;9.504;2023-05-07T05:52:39;13.40;99.90
44513;DHT22;30219;50.588;9.504;2023-05-07T05:55:06;13.50;99.90
44513;DHT22;30219;50.588;9.504;2023-05-07T05:57:31;13.50;99.90
44513;DHT22;30219;50.588;9.504;2023-05-07T05:59:57;13.50;99.90
44513;DHT22;30219;50.588;9.504;2023-05-07T06:02:23;13.50;99.90
44513;DHT22;30219;50.588;9.504;2023-05-07T06:04:48;13.50;99.90
44513;DHT22;30219;50.588;9.504;2023-05-07T06:07:14;13.50;99.90
44513;DHT22;30219;50.588;9.504;2023-05-07T06:09:39;13.60;99.90
44513;DHT22;30219;50.588;9.504;2023-05-07T06:12:05;13.60;99.90
44513;DHT22;30219;50.588;9.504;2023-05-07T06:14:31;13.50;99.90
44513;DHT22;30219;50.588;9.504;2023-05-07T06:16:56;13.50;99.90
44513;DHT22;30219;50.588;9.504;2023-05-07T06:19:22;13.50;99.90
44513;DHT22;30219;50.588;9.504;2023-05-07T06:21:49;13.50;99.90
44513;DHT22;30219;50.588;9.504;2023-05-07T06:24:14;13.60;99.90
44513;DHT22;30219;50.588;9.504;2023-05-07T06:26:40;13.50;99.90
44513;DHT22;30219;50.588;9.504;2023-05-07T06:29:06;13.50;99.90
44513;DHT22;30219;50.588;9.504;2023-05-07T06:31:31;13.50;99.90
44513;DHT22;30219;50.588;9.504;2023-05-07T06:33:57;13.50;99.90
44513;DHT22;30219;50.588;9.504;2023-05-07T06:36:22;13.60;99.90
44513;DHT22;30219;50.588;9.504;2023-05-07T06:38:48;13.60;99.90
44513;DHT22;30219;50.588;9.504;2023-05-07T06:41:13;13.60;99.90
44513;DHT22;30219;50.588;9.504;2023-05-07T06:43:39;13.70;99.90
44513;DHT22;30219;50.588;9.504;2023-05-07T06:46:04;13.70;99.90
44513;DHT22;30219;50.588;9.504;2023-05-07T06:48:30;13.80;99.90
44513;DHT22;30219;50.588;9.504;2023-05-07T06:50:56;13.80;99.90
44513;DHT22;30219;50.588;9.504;2023-05-07T06:53:23;13.90;99.90
44513;DHT22;30219;50.588;9.504;2023-05-07T06:55:48;14.10;99.90
44513;DHT22;30219;50.588;9.504;2023-05-07T06:58:14;14.10;99.90
44513;DHT22;30219;50.588;9.504;2023-05-07T07:00:39;14.10;99.90
44513;DHT22;30219;50.588;9.504;2023-05-07T07:03:06;14.20;99.90
44513;DHT22;30219;50.588;9.504;2023-05-07T07:05:31;14.20;99.90
44513;DHT22;30219;50.588;9.504;2023-05-07T07:07:57;14.30;99.90
44513;DHT22;30219;50.588;9.504;2023-05-07T07:10:22;14.40;99.90
44513;DHT22;30219;50.588;9.504;2023-05-07T07:12:48;14.60;99.90
44513;DHT22;30219;50.588;9.504;2023-05-07T07:15:14;14.70;99.90
44513;DHT22;30219;50.588;9.504;2023-05-07T07:17:40;14.90;99.90
44513;DHT22;30219;50.588;9.504;2023-05-07T07:20:05;14.90;99.90
44513;DHT22;30219;50.588;9.504;2023-05-07T07:22:31;15.10;99.90
44513;DHT22;30219;50.588;9.504;2023-05-07T07:24:56;15.20;99.90
44513;DHT22;30219;50.588;9.504;2023-05-07T07:27:22;15.30;99.90
44513;DHT22;30219;50.588;9.504;2023-05-07T07:29:47;15.40;99.90
44513;DHT22;30219;50.588;9.504;2023-05-07T07:32:13;15.60;99.90
44513;DHT22;30219;50.588;9.504;2023-05-07T07:34:38;15.60;99.90
44513;DHT22;30219;50.588;9.504;2023-05-07T07:37:04;15.70;99.90
44513;DHT22;30219;50.588;9.504;2023-05-07T07:39:31;15.70;99.90
44513;DHT22;30219;50.588;9.504;2023-05-07T07:41:57;15.80;99.90
44513;DHT22;30219;50.588;9.504;2023-05-07T07:44:22;16.00;99.90
44513;DHT22;30219;50.588;9.504;2023-05-07T07:46:48;16.20;99.90
44513;DHT22;30219;50.588;9.504;2023-05-07T07:49:14;16.40;99.90
44513;DHT22;30219;50.588;9.504;2023-05-07T07:51:39;16.50;99.90
44513;DHT22;30219;50.588;9.504;2023-05-07T07:54:05;16.60;99.90
44513;DHT22;30219;50.588;9.504;2023-05-07T07:56:32;16.80;99.90
44513;DHT22;30219;50.588;9.504;2023-05-07T07:58:58;16.90;99.90
44513;DHT22;30219;50.588;9.504;2023-05-07T08:01:23;16.90;99.90
44513;DHT22;30219;50.588;9.504;2023-05-07T08:03:49;17.00;99.90
44513;DHT22;30219;50.588;9.504;2023-05-07T08:06:14;17.00;99.90
44513;DHT22;30219;50.588;9.504;2023-05-07T08:08:40;16.80;99.90
44513;DHT22;30219;50.588;9.504;2023-05-07T08:11:06;16.60;99.90
44513;DHT22;30219;50.588;9.504;2023-05-07T08:13:31;16.60;99.90
44513;DHT22;30219;50.588;9.504;2023-05-07T08:15:57;16.60;99.90
44513;DHT22;30219;50.588;9.504;2023-05-07T08:18:22;16.70;99.90
44513;DHT22;30219;50.588;9.504;2023-05-07T08:20:50;16.90;99.90
44513;DHT22;30219;50.588;9.504;2023-05-07T08:23:15;17.00;99.90
44513;DHT22;30219;50.588;9.504;2023-05-07T08:25:41;17.20;99.90
44513;DHT22;30219;50.588;9.504;2023-05-07T08:28:07;17.10;99.90
44513;DHT22;30219;50.588;9.504;2023-05-07T08:30:33;17.10;99.90
44513;DHT22;30219;50.588;9.504;2023-05-07T08:32:59;17.20;99.90
44513;DHT22;30219;50.588;9.504;2023-05-07T08:35:25;17.10;99.90
44513;DHT22;30219;50.588;9.504;2023-05-07T08:37:51;17.20;99.90
44513;DHT22;30219;50.588;9.504;2023-05-07T08:40:16;17.10;99.90
44513;DHT22;30219;50.588;9.504;2023-05-07T08:42:42;17.10;99.90
44513;DHT22;30219;50.588;9.504;2023-05-07T08:45:10;17.20;99.90
44513;DHT22;30219;50.588;9.504;2023-05-07T08:47:40;17.30;99.90
44513;DHT22;30219;50.588;9.504;2023-05-07T08:50:07;17.40;99.90
44513;DHT22;30219;50.588;9.504;2023-05-07T08:52:33;17.40;99.90
44513;DHT22;30219;50.588;9.504;2023-05-07T08:54:59;17.60;99.90
44513;DHT22;30219;50.588;9.504;2023-05-07T08:57:24;17.70;99.90
44513;DHT22;30219;50.588;9.504;2023-05-07T08:59:49;17.90;99.90
44513;DHT22;30219;50.588;9.504;2023-05-07T09:02:15;18.00;99.90
44513;DHT22;30219;50.588;9.504;2023-05-07T09:04:41;18.10;99.90
44513;DHT22;30219;50.588;9.504;2023-05-07T09:07:07;18.30;99.90
44513;DHT22;30219;50.588;9.504;2023-05-07T09:09:33;18.50;99.90
44513;DHT22;30219;50.588;9.504;2023-05-07T09:11:59;18.60;99.90
44513;DHT22;30219;50.588;9.504;2023-05-07T09:14:25;18.70;99.90
44513;DHT22;30219;50.588;9.504;2023-05-07T09:16:52;18.70;99.90
44513;DHT22;30219;50.588;9.504;2023-05-07T09:19:21;18.90;99.90
44513;DHT22;30219;50.588;9.504;2023-05-07T09:21:47;18.90;99.90
44513;DHT22;30219;50.588;9.504;2023-05-07T09:24:14;19.00;99.90
44513;DHT22;30219;50.588;9.504;2023-05-07T09:26:40;19.00;99.90
44513;DHT22;30219;50.588;9.504;2023-05-07T09:29:06;19.10;99.90
44513;DHT22;30219;50.588;9.504;2023-05-07T09:31:36;19.10;99.90
44513;DHT22;30219;50.588;9.504;2023-05-07T09:34:01;19.20;99.90
44513;DHT22;30219;50.588;9.504;2023-05-07T09:36:27;19.40;99.90
44513;DHT22;30219;50.588;9.504;2023-05-07T09:38:52;19.40;99.90
44513;DHT22;30219;50.588;9.504;2023-05-07T09:41:18;19.50;99.90
44513;DHT22;30219;50.588;9.504;2023-05-07T09:43:43;19.60;99.90
44513;DHT22;30219;50.588;9.504;2023-05-07T09:46:13;19.70;99.90
44513;DHT22;30219;50.588;9.504;2023-05-07T09:48:39;19.80;99.90
44513;DHT22;30219;50.588;9.504;2023-05-07T09:51:06;20.10;99.90
44513;DHT22;30219;50.588;9.504;2023-05-07T09:53:36;20.40;99.90
44513;DHT22;30219;50.588;9.504;2023-05-07T09:56:03;20.60;99.90
44513;DHT22;30219;50.588;9.504;2023-05-07T09:58:28;21.00;99.90
44513;DHT22;30219;50.588;9.504;2023-05-07T10:00:54;21.30;99.90
44513;DHT22;30219;50.588;9.504;2023-05-07T10:03:20;21.40;99.90
44513;DHT22;30219;50.588;9.504;2023-05-07T10:05:47;21.80;99.90
44513;DHT22;30219;50.588;9.504;2023-05-07T10:08:13;22.30;99.90
44513;DHT22;30219;50.588;9.504;2023-05-07T10:10:39;22.90;99.90
44513;DHT22;30219;50.588;9.504;2023-05-07T10:13:05;23.40;99.90
44513;DHT22;30219;50.588;9.504;2023-05-07T10:15:35;23.70;99.90
44513;DHT22;30219;50.588;9.504;2023-05-07T10:18:01;24.00;99.90
44513;DHT22;30219;50.588;9.504;2023-05-07T10:20:27;24.10;99.90
44513;DHT22;30219;50.588;9.504;2023-05-07T10:22:53;24.00;99.90
44513;DHT22;30219;50.588;9.504;2023-05-07T10:27:46;24.00;99.20
44513;DHT22;30219;50.588;9.504;2023-05-07T10:30:33;23.90;99.30
44513;DHT22;30219;50.588;9.504;2023-05-07T10:33:01;23.60;99.70
44513;DHT22;30219;50.588;9.504;2023-05-07T10:35:31;23.90;99.20
44513;DHT22;30219;50.588;9.504;2023-05-07T10:37:58;23.70;98.90
44513;DHT22;30219;50.588;9.504;2023-05-07T10:40:23;23.80;99.50
44513;DHT22;30219;50.588;9.504;2023-05-07T10:42:59;24.20;98.70
44513;DHT22;30219;50.588;9.504;2023-05-07T10:45:25;23.80;98.50
44513;DHT22;30219;50.588;9.504;2023-05-07T10:50:35;23.30;98.70
44513;DHT22;30219;50.588;9.504;2023-05-07T10:55:46;23.20;99.50
44513;DHT22;30219;50.588;9.504;2023-05-07T11:00:47;23.30;99.60
44513;DHT22;30219;50.588;9.504;2023-05-07T11:03:13;23.60;98.70
44513;DHT22;30219;50.588;9.504;2023-05-07T11:05:40;23.30;99.30
44513;DHT22;30219;50.588;9.504;2023-05-07T11:08:06;23.20;99.20
44513;DHT22;30219;50.588;9.504;2023-05-07T11:10:48;23.30;99.30
44513;DHT22;30219;50.588;9.504;2023-05-07T11:13:13;23.60;98.90
44513;DHT22;30219;50.588;9.504;2023-05-07T11:15:40;23.90;99.20
44513;DHT22;30219;50.588;9.504;2023-05-07T11:18:07;24.00;98.70
44513;DHT22;30219;50.588;9.504;2023-05-07T11:23:54;24.30;98.10
44513;DHT22;30219;50.588;9.504;2023-05-07T11:26:03;24.50;97.90
44513;DHT22;30219;50.588;9.504;2023-05-07T11:28:29;24.40;97.90
44513;DHT22;30219;50.588;9.504;2023-05-07T11:30:55;24.30;97.60
44513;DHT22;30219;50.588;9.504;2023-05-07T11:33:21;24.50;98.40
44513;DHT22;30219;50.588;9.504;2023-05-07T11:35:47;24.50;97.40
44513;DHT22;30219;50.588;9.504;2023-05-07T11:38:13;24.60;97.80
44513;DHT22;30219;50.588;9.504;2023-05-07T11:40:54;24.60;97.60
44513;DHT22;30219;50.588;9.504;2023-05-07T11:43:20;25.00;97.00
44513;DHT22;30219;50.588;9.504;2023-05-07T11:45:46;25.20;96.90
44513;DHT22;30219;50.588;9.504;2023-05-07T11:48:15;25.10;96.40
44513;DHT22;30219;50.588;9.504;2023-05-07T11:50:50;24.60;96.40
44513;DHT22;30219;50.588;9.504;2023-05-07T11:53:16;25.00;97.00
44513;DHT22;30219;50.588;9.504;2023-05-07T11:55:42;25.60;96.90
44513;DHT22;30219;50.588;9.504;2023-05-07T11:58:10;25.50;95.50
44513;DHT22;30219;50.588;9.504;2023-05-07T12:00:35;25.10;95.90
44513;DHT22;30219;50.588;9.504;2023-05-07T12:03:04;24.90;96.30
44513;DHT22;30219;50.588;9.504;2023-05-07T12:05:30;24.40;96.70
44513;DHT22;30219;50.588;9.504;2023-05-07T12:07:58;24.30;97.00
44513;DHT22;30219;50.588;9.504;2023-05-07T12:10:24;24.20;96.90
44513;DHT22;30219;50.588;9.504;2023-05-07T12:12:50;24.30;97.00
44513;DHT22;30219;50.588;9.504;2023-05-07T12:15:16;24.40;96.50
44513;DHT22;30219;50.588;9.504;2023-05-07T12:17:42;24.10;96.90
44513;DHT22;30219;50.588;9.504;2023-05-07T12:20:07;23.70;97.10
44513;DHT22;30219;50.588;9.504;2023-05-07T12:22:33;23.50;97.40
44513;DHT22;30219;50.588;9.504;2023-05-07T12:24:59;23.30;97.70
44513;DHT22;30219;50.588;9.504;2023-05-07T12:27:25;23.40;97.50
44513;DHT22;30219;50.588;9.504;2023-05-07T12:29:50;23.20;97.80
44513;DHT22;30219;50.588;9.504;2023-05-07T12:32:17;23.10;97.80
44513;DHT22;30219;50.588;9.504;2023-05-07T12:34:43;23.20;97.90
44513;DHT22;30219;50.588;9.504;2023-05-07T12:37:08;23.20;98.00
44513;DHT22;30219;50.588;9.504;2023-05-07T12:39:34;23.10;98.20
44513;DHT22;30219;50.588;9.504;2023-05-07T12:41:59;23.20;98.50
44513;DHT22;30219;50.588;9.504;2023-05-07T12:44:25;23.30;98.20
44513;DHT22;30219;50.588;9.504;2023-05-07T12:46:54;23.40;98.00
44513;DHT22;30219;50.588;9.504;2023-05-07T12:49:19;23.30;98.00
44513;DHT22;30219;50.588;9.504;2023-05-07T12:51:48;23.00;97.90
44513;DHT22;30219;50.588;9.504;2023-05-07T12:54:26;23.30;98.40
44513;DHT22;30219;50.588;9.504;2023-05-07T12:56:59;23.10;98.10
44513;DHT22;30219;50.588;9.504;2023-05-07T12:59:32;23.10;98.30
44513;DHT22;30219;50.588;9.504;2023-05-07T13:01:57;23.40;98.10
44513;DHT22;30219;50.588;9.504;2023-05-07T13:04:24;23.50;98.10
44513;DHT22;30219;50.588;9.504;2023-05-07T13:06:49;23.70;98.10
44513;DHT22;30219;50.588;9.504;2023-05-07T13:09:15;23.70;98.40
44513;DHT22;30219;50.588;9.504;2023-05-07T13:11:41;23.70;98.10
44513;DHT22;30219;50.588;9.504;2023-05-07T13:14:06;23.80;98.00
44513;DHT22;30219;50.588;9.504;2023-05-07T13:16:31;23.60;98.20
44513;DHT22;30219;50.588;9.504;2023-05-07T13:18:57;23.70;97.40
44513;DHT22;30219;50.588;9.504;2023-05-07T13:21:22;23.40;98.00
44513;DHT22;30219;50.588;9.504;2023-05-07T13:23:48;23.30;98.40
44513;DHT22;30219;50.588;9.504;2023-05-07T13:26:13;23.30;98.10
44513;DHT22;30219;50.588;9.504;2023-05-07T13:28:39;23.40;97.60
44513;DHT22;30219;50.588;9.504;2023-05-07T13:31:04;23.30;97.70
44513;DHT22;30219;50.588;9.504;2023-05-07T13:33:30;23.20;98.00
44513;DHT22;30219;50.588;9.504;2023-05-07T13:35:55;23.00;98.00
44513;DHT22;30219;50.588;9.504;2023-05-07T13:38:22;22.70;98.30
44513;DHT22;30219;50.588;9.504;2023-05-07T13:40:48;22.70;98.40
44513;DHT22;30219;50.588;9.504;2023-05-07T13:43:13;22.40;98.60
44513;DHT22;30219;50.588;9.504;2023-05-07T13:45:39;22.30;98.80
44513;DHT22;30219;50.588;9.504;2023-05-07T13:48:05;22.40;98.80
44513;DHT22;30219;50.588;9.504;2023-05-07T13:50:30;22.50;99.30
44513;DHT22;30219;50.588;9.504;2023-05-07T13:52:56;22.60;98.80
44513;DHT22;30219;50.588;9.504;2023-05-07T13:55:21;22.50;98.90
44513;DHT22;30219;50.588;9.504;2023-05-07T13:57:53;22.40;98.60
44513;DHT22;30219;50.588;9.504;2023-05-07T14:00:19;22.50;98.90
44513;DHT22;30219;50.588;9.504;2023-05-07T14:02:45;22.40;98.80
44513;DHT22;30219;50.588;9.504;2023-05-07T14:05:10;22.30;99.40
44513;DHT22;30219;50.588;9.504;2023-05-07T14:07:36;22.20;99.10
44513;DHT22;30219;50.588;9.504;2023-05-07T14:10:01;22.30;99.30
44513;DHT22;30219;50.588;9.504;2023-05-07T14:12:27;22.40;98.50
44513;DHT22;30219;50.588;9.504;2023-05-07T14:14:53;22.10;98.70
44513;DHT22;30219;50.588;9.504;2023-05-07T14:17:18;22.00;99.00
44513;DHT22;30219;50.588;9.504;2023-05-07T14:19:45;21.90;99.10
44513;DHT22;30219;50.588;9.504;2023-05-07T14:22:10;22.00;99.00
44513;DHT22;30219;50.588;9.504;2023-05-07T14:24:36;22.10;98.80
44513;DHT22;30219;50.588;9.504;2023-05-07T14:27:01;22.30;98.70
44513;DHT22;30219;50.588;9.504;2023-05-07T14:29:27;22.10;98.60
44513;DHT22;30219;50.588;9.504;2023-05-07T14:31:53;21.90;99.20
44513;DHT22;30219;50.588;9.504;2023-05-07T14:34:18;21.80;98.70
44513;DHT22;30219;50.588;9.504;2023-05-07T14:36:44;21.90;98.70
44513;DHT22;30219;50.588;9.504;2023-05-07T14:39:09;21.60;98.60
44513;DHT22;30219;50.588;9.504;2023-05-07T14:41:35;21.30;99.10
44513;DHT22;30219;50.588;9.504;2023-05-07T14:44:00;21.30;99.20
44513;DHT22;30219;50.588;9.504;2023-05-07T14:46:26;21.30;99.10
44513;DHT22;30219;50.588;9.504;2023-05-07T14:48:52;21.20;99.40
44513;DHT22;30219;50.588;9.504;2023-05-07T14:51:18;21.10;99.80
44513;DHT22;30219;50.588;9.504;2023-05-07T14:53:44;21.20;99.20
44513;DHT22;30219;50.588;9.504;2023-05-07T14:56:09;21.00;99.30
44513;DHT22;30219;50.588;9.504;2023-05-07T14:58:35;20.80;99.60
44513;DHT22;30219;50.588;9.504;2023-05-07T15:01:00;20.70;99.60
44513;DHT22;30219;50.588;9.504;2023-05-07T15:03:26;20.90;99.90
44513;DHT22;30219;50.588;9.504;2023-05-07T15:05:52;21.10;99.60
44513;DHT22;30219;50.588;9.504;2023-05-07T15:08:18;21.10;99.30
44513;DHT22;30219;50.588;9.504;2023-05-07T15:10:43;21.30;99.20
44513;DHT22;30219;50.588;9.504;2023-05-07T15:13:09;21.20;99.40
44513;DHT22;30219;50.588;9.504;2023-05-07T15:15:35;21.20;99.90
44513;DHT22;30219;50.588;9.504;2023-05-07T15:18:01;21.20;99.10
44513;DHT22;30219;50.588;9.504;2023-05-07T15:20:27;21.20;99.90
44513;DHT22;30219;50.588;9.504;2023-05-07T15:22:52;21.10;99.10
44513;DHT22;30219;50.588;9.504;2023-05-07T15:25:18;20.90;99.20
44513;DHT22;30219;50.588;9.504;2023-05-07T15:27:43;20.90;99.40
44513;DHT22;30219;50.588;9.504;2023-05-07T15:30:09;20.90;99.60
44513;DHT22;30219;50.588;9.504;2023-05-07T15:32:36;20.90;99.20
44513;DHT22;30219;50.588;9.504;2023-05-07T15:35:02;21.20;99.30